Time;durP1;ratioP1;P1;durP2;ratioP2;P2;SDS_P1;SDS_P2;PMS_P1;PMS_P2;Temp;Humidity;BMP_temperature;BMP_pressure;BME280_temperature;BME280_humidity;BME280_pressure;Samples;Min_cycle;Max_cycle;Signal;HPM_P1;HPM_P2
2023/04/08 00:01:13;;;;;;;39.80;21.67;;;;;;;;;;4893228;28;20048;-72
2023/04/08 00:03:38;;;;;;;45.22;23.33;;;;;;;;;;4898746;28;20301;-72
2023/04/08 00:06:03;;;;;;;46.58;23.73;;;;;;;;;;4898567;28;20074;-73
2023/04/08 00:08:29;;;;;;;46.65;23.55;;;;;;;;;;4902179;28;20142;-73
2023/04/08 00:10:54;;;;;;;46.67;23.73;;;;;;;;;;4899394;28;20074;-72
2023/04/08 00:13:20;;;;;;;45.20;23.42;;;;;;;;;;4897211;28;20398;-73
2023/04/08 00:15:47;;;;;;;50.20;24.23;;;;;;;;;;4900326;28;20654;-72
2023/04/08 00:18:14;;;;;;;58.78;28.20;;;;;;;;;;4892403;28;20114;-73
2023/04/08 00:20:41;;;;;;;61.63;29.73;;;;;;;;;;4897240;28;20086;-73
2023/04/08 00:23:11;;;;;;;55.20;26.48;;;;;;;;;;4897384;28;20262;-72
2023/04/08 00:25:39;;;;;;;53.38;25.88;;;;;;;;;;4898902;28;20132;-72
2023/04/08 00:28:06;;;;;;;53.03;25.48;;;;;;;;;;4900347;28;20089;-71
2023/04/08 00:30:34;;;;;;;53.47;25.48;;;;;;;;;;4898930;28;20116;-72
2023/04/08 00:33:00;;;;;;;48.85;25.23;;;;;;;;;;4898216;28;20043;-72
2023/04/08 00:35:28;;;;;;;61.40;25.27;;;;;;;;;;4897521;28;20418;-72
2023/04/08 00:37:58;;;;;;;52.83;22.83;;;;;;;;;;4911126;28;20129;-72
2023/04/08 00:40:23;;;;;;;57.92;23.52;;;;;;;;;;4880236;28;20752;-74
2023/04/08 00:42:49;;;;;;;56.25;23.50;;;;;;;;;;4903251;28;20123;-73
2023/04/08 00:45:14;;;;;;;58.92;24.05;;;;;;;;;;4893920;28;20101;-74
2023/04/08 00:47:40;;;;;;;57.17;24.00;;;;;;;;;;4895716;28;20503;-73
2023/04/08 00:50:11;;;;;;;54.28;22.88;;;;;;;;;;4895692;28;20097;-73
2023/04/08 00:52:36;;;;;;;53.22;23.55;;;;;;;;;;4897798;28;20127;-73
2023/04/08 00:55:04;;;;;;;59.67;24.13;;;;;;;;;;4904462;28;20332;-72
2023/04/08 00:57:29;;;;;;;54.38;23.33;;;;;;;;;;4898765;28;20083;-72
2023/04/08 00:59:54;;;;;;;58.47;23.65;;;;;;;;;;4895365;28;20145;-74
2023/04/08 01:02:20;;;;;;;47.75;21.15;;;;;;;;;;4895822;28;20172;-72
2023/04/08 01:04:55;;;;;;;56.75;22.52;;;;;;;;;;4896256;28;20090;-73
2023/04/08 01:07:30;;;;;;;54.35;22.25;;;;;;;;;;4897851;28;20821;-73
2023/04/08 01:10:09;;;;;;;62.97;24.25;;;;;;;;;;4896079;28;20414;-74
2023/04/08 01:12:39;;;;;;;67.60;25.95;;;;;;;;;;4896782;28;20504;-72
2023/04/08 01:15:06;;;;;;;58.90;24.75;;;;;;;;;;4896540;28;20031;-71
2023/04/08 01:17:35;;;;;;;68.28;28.95;;;;;;;;;;4894063;28;20683;-72
2023/04/08 01:20:03;;;;;;;89.10;40.72;;;;;;;;;;4897391;28;20084;-72
2023/04/08 01:22:39;;;;;;;90.57;38.30;;;;;;;;;;4896524;28;20070;-72
2023/04/08 01:25:09;;;;;;;76.95;32.70;;;;;;;;;;4891621;28;20538;-72
2023/04/08 01:27:36;;;;;;;;;;;;;;;;;;4898934;28;20050;-72
2023/04/08 01:30:03;;;;;;;65.40;24.38;;;;;;;;;;4895283;28;20637;-72
2023/04/08 01:32:30;;;;;;;62.55;24.25;;;;;;;;;;4895254;28;20101;-72
2023/04/08 01:34:56;;;;;;;63.05;22.92;;;;;;;;;;4923923;28;20124;-72
2023/04/08 01:37:22;;;;;;;60.80;22.75;;;;;;;;;;4893326;28;20043;-71
2023/04/08 01:39:48;;;;;;;55.17;21.83;;;;;;;;;;4896076;28;20047;-71
2023/04/08 01:42:16;;;;;;;53.75;21.98;;;;;;;;;;4896017;28;20753;-71
2023/04/08 01:44:42;;;;;;;59.63;22.77;;;;;;;;;;4896195;28;20184;-72
2023/04/08 01:47:09;;;;;;;53.42;21.80;;;;;;;;;;4895784;28;20085;-73
2023/04/08 01:49:34;;;;;;;56.63;22.55;;;;;;;;;;4895677;28;20547;-72
2023/04/08 01:52:00;;;;;;;57.30;22.83;;;;;;;;;;4894401;28;20057;-72
2023/04/08 01:54:25;;;;;;;55.28;22.42;;;;;;;;;;4890019;28;20152;-72
2023/04/08 01:56:53;;;;;;;57.80;21.75;;;;;;;;;;4897011;28;20040;-72
2023/04/08 01:59:19;;;;;;;53.13;21.60;;;;;;;;;;4894774;28;20567;-72
2023/04/08 02:01:47;;;;;;;59.15;21.33;;;;;;;;;;4893306;28;20035;-72
2023/04/08 02:04:13;;;;;;;55.35;21.05;;;;;;;;;;4888059;28;20248;-72
2023/04/08 02:06:38;;;;;;;62.00;22.08;;;;;;;;;;4896736;28;20051;-72
2023/04/08 02:09:07;;;;;;;54.17;20.77;;;;;;;;;;4897172;28;20207;-72
2023/04/08 02:11:32;;;;;;;54.75;20.85;;;;;;;;;;4905286;28;20044;-72
2023/04/08 02:13:58;;;;;;;60.72;22.38;;;;;;;;;;4928284;28;20132;-73
2023/04/08 02:16:26;;;;;;;57.08;20.60;;;;;;;;;;4917743;28;20151;-71
2023/04/08 02:18:59;;;;;;;60.42;22.30;;;;;;;;;;4916005;28;20351;-71
2023/04/08 02:21:33;;;;;;;61.72;22.85;;;;;;;;;;4916403;28;20500;-72
2023/04/08 02:24:02;;;;;;;58.35;22.13;;;;;;;;;;4916447;28;20051;-73
2023/04/08 02:26:27;;;;;;;57.05;21.33;;;;;;;;;;4915882;28;20515;-71
2023/04/08 02:28:53;;;;;;;67.78;25.40;;;;;;;;;;4912149;28;20043;-72
2023/04/08 02:31:19;;;;;;;72.55;27.05;;;;;;;;;;4914533;28;20051;-71
2023/04/08 02:33:45;;;;;;;69.32;23.73;;;;;;;;;;4912765;28;20106;-74
2023/04/08 02:36:13;;;;;;;62.88;25.45;;;;;;;;;;4917615;28;20381;-74
2023/04/08 02:38:40;;;;;;;65.65;25.48;;;;;;;;;;4911934;28;20058;-72
2023/04/08 02:41:06;;;;;;;71.53;26.13;;;;;;;;;;4919907;28;20043;-72
2023/04/08 02:43:34;;;;;;;63.03;26.48;;;;;;;;;;4919844;28;20051;-73
2023/04/08 02:46:02;;;;;;;65.85;25.95;;;;;;;;;;4920037;28;20178;-72
2023/04/08 02:48:27;;;;;;;57.58;24.83;;;;;;;;;;4917700;28;20575;-72
2023/04/08 02:50:53;;;;;;;60.25;25.23;;;;;;;;;;4915250;28;20043;-71
2023/04/08 02:53:18;;;;;;;58.67;28.05;;;;;;;;;;4917053;28;20035;-71
2023/04/08 02:55:44;;;;;;;58.15;27.33;;;;;;;;;;4918086;28;20039;-72
2023/04/08 02:58:09;;;;;;;55.17;27.30;;;;;;;;;;4917467;28;20046;-71
2023/04/08 03:00:36;;;;;;;51.28;26.65;;;;;;;;;;4918173;28;20035;-72
2023/04/08 03:03:01;;;;;;;48.42;25.45;;;;;;;;;;4916908;28;20164;-71
2023/04/08 03:05:29;;;;;;;47.28;25.45;;;;;;;;;;4920192;28;20500;-72
2023/04/08 03:07:54;;;;;;;49.00;25.65;;;;;;;;;;4915669;28;20414;-73
2023/04/08 03:10:19;;;;;;;52.03;27.02;;;;;;;;;;4916282;28;20063;-74
2023/04/08 03:12:45;;;;;;;48.95;27.10;;;;;;;;;;4912510;28;20114;-73
2023/04/08 03:15:10;;;;;;;49.13;27.55;;;;;;;;;;4917397;28;20038;-71
2023/04/08 03:17:35;;;;;;;49.13;26.65;;;;;;;;;;4917642;28;20062;-71
2023/04/08 03:20:03;;;;;;;49.33;26.20;;;;;;;;;;4911348;28;20202;-72
2023/04/08 03:22:29;;;;;;;49.72;27.33;;;;;;;;;;4917768;28;20450;-72
2023/04/08 03:24:54;;;;;;;47.63;27.67;;;;;;;;;;4915509;28;20039;-72
2023/04/08 03:27:22;;;;;;;55.53;30.52;;;;;;;;;;4899569;28;20523;-71
2023/04/08 03:29:47;;;;;;;49.28;29.20;;;;;;;;;;4902369;28;20045;-72
2023/04/08 03:32:12;;;;;;;52.75;30.05;;;;;;;;;;4916173;28;20039;-72
2023/04/08 03:34:37;;;;;;;54.35;30.45;;;;;;;;;;4910746;28;20058;-72
2023/04/08 03:37:03;;;;;;;53.42;29.90;;;;;;;;;;4916320;28;20061;-71
2023/04/08 03:39:28;;;;;;;52.47;29.58;;;;;;;;;;4916920;28;20124;-72
2023/04/08 03:41:53;;;;;;;52.03;30.27;;;;;;;;;;4920657;28;20043;-72
2023/04/08 03:44:19;;;;;;;51.83;30.02;;;;;;;;;;4902706;28;20035;-72
2023/04/08 03:46:44;;;;;;;55.13;30.70;;;;;;;;;;4919029;28;20423;-71
2023/04/08 03:49:09;;;;;;;52.28;30.75;;;;;;;;;;4895124;28;20035;-72
2023/04/08 03:51:35;;;;;;;54.25;31.90;;;;;;;;;;4912643;28;20059;-71
2023/04/08 03:54:00;;;;;;;54.88;30.05;;;;;;;;;;4914285;28;20043;-73
2023/04/08 03:56:25;;;;;;;53.13;31.92;;;;;;;;;;4917490;28;20066;-73
2023/04/08 03:58:50;;;;;;;57.30;31.20;;;;;;;;;;4912558;28;20050;-72
2023/04/08 04:01:16;;;;;;;52.47;31.45;;;;;;;;;;4917128;28;20047;-72
2023/04/08 04:03:41;;;;;;;58.72;32.97;;;;;;;;;;4917082;28;20051;-72
2023/04/08 04:06:06;;;;;;;54.72;32.92;;;;;;;;;;4918987;28;20050;-72
2023/04/08 04:08:34;;;;;;;55.85;32.45;;;;;;;;;;4912371;28;20155;-72
2023/04/08 04:10:59;;;;;;;58.42;33.92;;;;;;;;;;4911291;28;20101;-73
2023/04/08 04:13:24;;;;;;;52.92;32.50;;;;;;;;;;4909657;28;20143;-72
2023/04/08 04:15:50;;;;;;;53.75;32.40;;;;;;;;;;4919324;28;20043;-72
2023/04/08 04:18:15;;;;;;;58.42;33.28;;;;;;;;;;4915295;28;20425;-71
2023/04/08 04:20:41;;;;;;;57.33;33.08;;;;;;;;;;4915606;28;20051;-71
2023/04/08 04:23:06;;;;;;;56.13;32.88;;;;;;;;;;4919042;28;20375;-72
2023/04/08 04:25:34;;;;;;;56.67;33.33;;;;;;;;;;4901648;28;20043;-71
2023/04/08 04:28:00;;;;;;;58.17;34.55;;;;;;;;;;4911564;28;20436;-72
2023/04/08 04:30:28;;;;;;;58.67;33.15;;;;;;;;;;4917208;28;20038;-71
2023/04/08 04:32:53;;;;;;;61.15;34.58;;;;;;;;;;4916020;28;20032;-72
2023/04/08 04:35:19;;;;;;;58.17;33.85;;;;;;;;;;4917571;28;20047;-73
2023/04/08 04:37:44;;;;;;;57.38;35.03;;;;;;;;;;4918571;28;20031;-72
2023/04/08 04:40:09;;;;;;;60.08;33.92;;;;;;;;;;4916019;28;20043;-71
2023/04/08 04:42:35;;;;;;;57.08;33.03;;;;;;;;;;4912168;28;20055;-71
2023/04/08 04:45:00;;;;;;;63.13;35.70;;;;;;;;;;4916518;28;20248;-70
2023/04/08 04:47:25;;;;;;;63.03;34.67;;;;;;;;;;4918181;28;20326;-71
2023/04/08 04:49:51;;;;;;;61.30;34.35;;;;;;;;;;4917153;28;20753;-71
2023/04/08 04:52:16;;;;;;;60.72;34.80;;;;;;;;;;4918102;28;20050;-72
2023/04/08 04:54:42;;;;;;;62.60;35.55;;;;;;;;;;4915436;28;20039;-72
2023/04/08 04:57:07;;;;;;;62.28;35.78;;;;;;;;;;4911992;28;20035;-71
2023/04/08 04:59:33;;;;;;;63.47;36.15;;;;;;;;;;4914049;28;20058;-71
2023/04/08 05:01:58;;;;;;;63.83;34.50;;;;;;;;;;4914114;28;20068;-72
2023/04/08 05:04:23;;;;;;;61.45;34.58;;;;;;;;;;4897343;28;20510;-72
2023/04/08 05:06:49;;;;;;;59.65;34.42;;;;;;;;;;4916931;28;20100;-71
2023/04/08 05:09:14;;;;;;;58.00;33.50;;;;;;;;;;4909046;28;20105;-71
2023/04/08 05:11:40;;;;;;;61.10;34.15;;;;;;;;;;4917203;28;20093;-71
2023/04/08 05:14:07;;;;;;;60.28;34.33;;;;;;;;;;4914889;28;20513;-71
2023/04/08 05:16:33;;;;;;;57.92;32.78;;;;;;;;;;4911193;28;20443;-71
2023/04/08 05:18:58;;;;;;;61.30;34.33;;;;;;;;;;4915099;28;20195;-72
2023/04/08 05:21:23;;;;;;;63.17;35.13;;;;;;;;;;4912197;28;20051;-74
2023/04/08 05:23:51;;;;;;;58.15;33.85;;;;;;;;;;4912336;28;20496;-73
2023/04/08 05:26:17;;;;;;;57.38;34.22;;;;;;;;;;4918097;28;20062;-73
2023/04/08 05:28:42;;;;;;;60.53;34.40;;;;;;;;;;4920307;28;22006;-72
2023/04/08 05:31:08;;;;;;;58.55;34.03;;;;;;;;;;4918745;28;20058;-74
2023/04/08 05:33:33;;;;;;;61.78;34.35;;;;;;;;;;4917107;28;20050;-72
2023/04/08 05:35:58;;;;;;;59.38;33.28;;;;;;;;;;4914694;28;20206;-73
2023/04/08 05:38:23;;;;;;;61.85;33.33;;;;;;;;;;4917168;28;20046;-72
2023/04/08 05:40:49;;;;;;;66.28;36.05;;;;;;;;;;4919386;28;20503;-72
2023/04/08 05:43:14;;;;;;;57.28;33.60;;;;;;;;;;4916044;28;20088;-73
2023/04/08 05:45:43;;;;;;;59.80;33.38;;;;;;;;;;4919259;28;20035;-72
2023/04/08 05:48:08;;;;;;;54.30;32.58;;;;;;;;;;4916215;28;20429;-72
2023/04/08 05:50:36;;;;;;;58.53;34.33;;;;;;;;;;4915223;28;20114;-73
2023/04/08 05:53:01;;;;;;;58.63;34.72;;;;;;;;;;4917913;28;20122;-76
2023/04/08 05:55:27;;;;;;;58.65;32.65;;;;;;;;;;4918961;28;20040;-72
2023/04/08 05:57:52;;;;;;;59.95;33.80;;;;;;;;;;4915615;28;20387;-73
2023/04/08 06:00:18;;;;;;;54.00;33.47;;;;;;;;;;4949472;28;20051;-73
2023/04/08 06:02:44;;;;;;;55.08;33.65;;;;;;;;;;4917638;28;20743;-69
2023/04/08 06:05:09;;;;;;;61.63;34.33;;;;;;;;;;4917943;28;20044;-73
2023/04/08 06:07:34;;;;;;;58.90;33.75;;;;;;;;;;4920029;28;20049;-73
2023/04/08 06:10:00;;;;;;;59.35;34.10;;;;;;;;;;4920037;28;20035;-74
2023/04/08 06:12:25;;;;;;;57.60;33.17;;;;;;;;;;4920090;28;20063;-72
2023/04/08 06:14:54;;;;;;;56.10;33.63;;;;;;;;;;4919147;28;20170;-76
2023/04/08 06:17:19;;;;;;;53.50;32.33;;;;;;;;;;4912607;28;20043;-72
2023/04/08 06:19:45;;;;;;;49.15;31.13;;;;;;;;;;4918005;28;20175;-73
2023/04/08 06:22:10;;;;;;;51.85;30.67;;;;;;;;;;4921064;28;20135;-72
2023/04/08 06:24:35;;;;;;;49.67;31.48;;;;;;;;;;4918958;28;20043;-72
2023/04/08 06:27:01;;;;;;;52.35;31.92;;;;;;;;;;4918093;28;20039;-71
2023/04/08 06:29:28;;;;;;;49.42;31.30;;;;;;;;;;4922598;28;20384;-73
2023/04/08 06:31:54;;;;;;;50.35;30.80;;;;;;;;;;4916228;28;20908;-71
2023/04/08 06:34:19;;;;;;;51.90;31.00;;;;;;;;;;4914673;28;21335;-73
2023/04/08 06:36:44;;;;;;;48.22;31.25;;;;;;;;;;4917444;28;20047;-72
2023/04/08 06:39:10;;;;;;;51.88;31.58;;;;;;;;;;4912364;28;20054;-73
2023/04/08 06:41:35;;;;;;;44.95;29.00;;;;;;;;;;4912966;28;20055;-73
2023/04/08 06:44:00;;;;;;;44.30;29.45;;;;;;;;;;4921733;28;20043;-73
2023/04/08 06:46:26;;;;;;;46.63;29.92;;;;;;;;;;4919229;28;20571;-74
2023/04/08 06:48:51;;;;;;;46.90;29.23;;;;;;;;;;4910980;28;20027;-70
2023/04/08 06:51:19;;;;;;;40.67;28.73;;;;;;;;;;4917173;28;20302;-71
2023/04/08 06:53:44;;;;;;;46.35;29.80;;;;;;;;;;4915021;28;20043;-71
2023/04/08 06:56:10;;;;;;;41.78;28.33;;;;;;;;;;4916523;28;20567;-71
2023/04/08 06:58:35;;;;;;;45.63;28.45;;;;;;;;;;4916376;28;20509;-72
2023/04/08 07:01:03;;;;;;;42.08;29.25;;;;;;;;;;4917283;28;20070;-72
2023/04/08 07:03:29;;;;;;;39.58;29.13;;;;;;;;;;4919941;28;20042;-72
2023/04/08 07:05:54;;;;;;;35.35;26.23;;;;;;;;;;4916550;28;20023;-72
2023/04/08 07:08:20;;;;;;;31.80;24.38;;;;;;;;;;4920374;28;20512;-71
2023/04/08 07:10:45;;;;;;;29.15;22.08;;;;;;;;;;4919977;28;20094;-71
2023/04/08 07:13:11;;;;;;;26.85;20.23;;;;;;;;;;4915924;28;20042;-72
2023/04/08 07:15:36;;;;;;;24.10;18.92;;;;;;;;;;4916027;28;20160;-73
2023/04/08 07:18:03;;;;;;;22.73;18.10;;;;;;;;;;4912777;28;20036;-65
2023/04/08 07:20:29;;;;;;;22.70;17.08;;;;;;;;;;4915773;28;20500;-71
2023/04/08 07:22:56;;;;;;;20.85;16.65;;;;;;;;;;4915253;28;20050;-72
2023/04/08 07:25:22;;;;;;;21.52;16.10;;;;;;;;;;4912312;28;20043;-73
2023/04/08 07:27:47;;;;;;;17.90;13.15;;;;;;;;;;4915180;28;20035;-71
2023/04/08 07:30:12;;;;;;;15.70;13.00;;;;;;;;;;4919027;28;20502;-72
2023/04/08 07:32:38;;;;;;;15.02;11.80;;;;;;;;;;4916422;28;20348;-70
2023/04/08 07:35:06;;;;;;;13.32;11.65;;;;;;;;;;4918805;28;20050;-71
2023/04/08 07:37:33;;;;;;;15.40;11.88;;;;;;;;;;4912980;28;20039;-69
2023/04/08 07:39:59;;;;;;;12.70;11.40;;;;;;;;;;4936892;28;22078;-68
2023/04/08 07:42:24;;;;;;;13.90;11.13;;;;;;;;;;4916663;28;20035;-70
2023/04/08 07:44:51;;;;;;;13.02;10.30;;;;;;;;;;4918564;28;20043;-70
2023/04/08 07:47:16;;;;;;;13.88;10.73;;;;;;;;;;4915035;28;20461;-71
2023/04/08 07:49:47;;;;;;;14.73;10.13;;;;;;;;;;4919664;28;20448;-71
2023/04/08 07:52:13;;;;;;;13.35;10.15;;;;;;;;;;4917551;28;20126;-69
2023/04/08 07:54:38;;;;;;;12.00;9.80;;;;;;;;;;4921064;28;20042;-71
2023/04/08 07:57:03;;;;;;;12.23;9.80;;;;;;;;;;4921748;28;20154;-70
2023/04/08 07:59:29;;;;;;;12.60;9.65;;;;;;;;;;4929304;28;20120;-72
2023/04/08 08:01:57;;;;;;;13.77;9.88;;;;;;;;;;4919524;28;20040;-69
2023/04/08 08:04:24;;;;;;;12.15;9.65;;;;;;;;;;4920663;28;20098;-71
2023/04/08 08:06:49;;;;;;;10.55;9.15;;;;;;;;;;4920969;28;20586;-70
2023/04/08 08:09:15;;;;;;;11.82;10.23;;;;;;;;;;4919320;28;20043;-71
2023/04/08 08:11:40;;;;;;;11.60;9.43;;;;;;;;;;4917618;28;20092;-72
2023/04/08 08:14:06;;;;;;;11.80;9.40;;;;;;;;;;4919017;28;20063;-71
2023/04/08 08:16:35;;;;;;;11.38;9.50;;;;;;;;;;4920041;28;20117;-70
2023/04/08 08:19:00;;;;;;;12.00;9.35;;;;;;;;;;4915788;28;20058;-71
2023/04/08 08:21:26;;;;;;;11.20;9.73;;;;;;;;;;4919946;28;20659;-72
2023/04/08 08:23:51;;;;;;;11.35;9.52;;;;;;;;;;4918123;28;20122;-69
2023/04/08 08:26:16;;;;;;;11.68;10.05;;;;;;;;;;4919696;28;20482;-70
2023/04/08 08:28:42;;;;;;;11.02;9.35;;;;;;;;;;4914677;28;20050;-69
2023/04/08 08:31:09;;;;;;;11.68;10.27;;;;;;;;;;4918010;28;20559;-71
2023/04/08 08:33:34;;;;;;;11.82;9.55;;;;;;;;;;4919304;28;20039;-69
2023/04/08 08:36:00;;;;;;;13.10;9.73;;;;;;;;;;4918247;28;20105;-70
2023/04/08 08:38:25;;;;;;;14.13;10.45;;;;;;;;;;4918688;28;20047;-70
2023/04/08 08:40:55;;;;;;;11.85;9.88;;;;;;;;;;4919846;28;20095;-71
2023/04/08 08:43:23;;;;;;;12.20;9.90;;;;;;;;;;4919357;28;20036;-71
2023/04/08 08:45:48;;;;;;;11.63;10.43;;;;;;;;;;4915914;28;20051;-70
2023/04/08 08:48:13;;;;;;;14.45;10.68;;;;;;;;;;4919395;28;20042;-72
2023/04/08 08:50:41;;;;;;;11.50;10.30;;;;;;;;;;4916433;28;20045;-71
2023/04/08 08:53:07;;;;;;;12.50;10.75;;;;;;;;;;4897977;28;20035;-71
2023/04/08 08:55:35;;;;;;;12.18;10.57;;;;;;;;;;4919137;28;20036;-71
2023/04/08 08:58:01;;;;;;;13.15;10.93;;;;;;;;;;4919449;28;20378;-70
2023/04/08 09:00:39;;;;;;;12.57;10.65;;;;;;;;;;4918300;28;20062;-71
2023/04/08 09:03:18;;;;;;;12.63;10.27;;;;;;;;;;4919603;28;20055;-71
2023/04/08 09:06:02;;;;;;;16.20;10.00;;;;;;;;;;4919489;28;20385;-70
2023/04/08 09:08:30;;;;;;;12.68;10.07;;;;;;;;;;4913617;28;20093;-70
2023/04/08 09:11:10;;;;;;;14.77;10.80;;;;;;;;;;4902005;28;20564;-70
2023/04/08 09:13:36;;;;;;;14.98;10.98;;;;;;;;;;4915807;28;20105;-70
2023/04/08 09:16:02;;;;;;;12.15;10.27;;;;;;;;;;4919616;28;20047;-71
2023/04/08 09:18:28;;;;;;;12.57;10.60;;;;;;;;;;4900412;28;20043;-69
2023/04/08 09:20:53;;;;;;;14.35;10.98;;;;;;;;;;4918403;28;20047;-71
2023/04/08 09:23:19;;;;;;;15.15;11.48;;;;;;;;;;4917221;28;20040;-70
2023/04/08 09:25:46;;;;;;;13.50;10.93;;;;;;;;;;4914274;28;20038;-69
2023/04/08 09:28:21;;;;;;;12.48;11.07;;;;;;;;;;4917542;28;20450;-69
2023/04/08 09:30:48;;;;;;;16.35;11.80;;;;;;;;;;4918686;28;20036;-68
2023/04/08 09:33:14;;;;;;;12.35;11.00;;;;;;;;;;4904531;28;20221;-69
2023/04/08 09:35:39;;;;;;;16.23;11.80;;;;;;;;;;4909800;28;20043;-71
2023/04/08 09:38:04;;;;;;;14.60;11.18;;;;;;;;;;4913433;28;20144;-69
2023/04/08 09:40:35;;;;;;;13.27;10.38;;;;;;;;;;4906601;28;20166;-67
2023/04/08 09:43:03;;;;;;;13.65;10.45;;;;;;;;;;4908370;28;20071;-68
2023/04/08 09:45:33;;;;;;;13.63;10.80;;;;;;;;;;4910162;28;20046;-68
2023/04/08 09:47:58;;;;;;;14.05;10.63;;;;;;;;;;4910606;28;20476;-69
2023/04/08 09:50:25;;;;;;;14.15;10.52;;;;;;;;;;4911619;28;20267;-71
2023/04/08 09:52:55;;;;;;;11.65;10.32;;;;;;;;;;4914802;28;20172;-70
2023/04/08 09:55:26;;;;;;;13.70;10.85;;;;;;;;;;4940300;28;20042;-70
2023/04/08 09:57:59;;;;;;;13.48;10.50;;;;;;;;;;4913276;28;20540;-68
2023/04/08 10:00:42;;;;;;;13.75;10.88;;;;;;;;;;4913685;28;20049;-67
2023/04/08 10:03:33;;;;;;;13.45;11.27;;;;;;;;;;4910858;28;20039;-68
2023/04/08 10:06:00;;;;;;;13.50;11.00;;;;;;;;;;4911887;28;20109;-71
2023/04/08 10:08:29;;;;;;;14.35;11.55;;;;;;;;;;4910357;28;20115;-70
2023/04/08 10:10:55;;;;;;;13.88;11.30;;;;;;;;;;4926737;28;20043;-69
2023/04/08 10:13:20;;;;;;;13.55;10.60;;;;;;;;;;4914108;28;20222;-70
2023/04/08 10:15:47;;;;;;;12.82;10.60;;;;;;;;;;4914810;28;20185;-71
2023/04/08 10:18:13;;;;;;;12.90;10.13;;;;;;;;;;4910390;28;20028;-70
2023/04/08 10:20:42;;;;;;;14.45;11.23;;;;;;;;;;4910464;28;20047;-70
2023/04/08 10:23:12;;;;;;;13.75;11.52;;;;;;;;;;4908163;28;20051;-71
2023/04/08 10:25:40;;;;;;;14.45;11.15;;;;;;;;;;4915982;28;20051;-68
2023/04/08 10:28:18;;;;;;;12.95;10.60;;;;;;;;;;4914726;28;20839;-70
2023/04/08 10:30:44;;;;;;;13.48;10.65;;;;;;;;;;4912609;28;20042;-69
2023/04/08 10:33:14;;;;;;;14.13;10.50;;;;;;;;;;4912656;28;20216;-71
2023/04/08 10:35:41;;;;;;;12.80;11.10;;;;;;;;;;4914439;28;20043;-71
2023/04/08 10:38:06;;;;;;;15.32;11.35;;;;;;;;;;4913499;28;20040;-69
2023/04/08 10:40:40;;;;;;;14.30;12.05;;;;;;;;;;4915472;28;20054;-70
2023/04/08 10:43:05;;;;;;;13.18;11.68;;;;;;;;;;4909119;28;20377;-70
2023/04/08 10:45:30;;;;;;;13.27;11.88;;;;;;;;;;4916527;28;20132;-69
2023/04/08 10:47:56;;;;;;;15.40;12.20;;;;;;;;;;4912951;28;20124;-70
2023/04/08 10:50:22;;;;;;;14.98;11.20;;;;;;;;;;4914638;28;20032;-68
2023/04/08 10:52:52;;;;;;;12.57;11.20;;;;;;;;;;4910460;28;20115;-69
2023/04/08 10:55:23;;;;;;;14.10;11.48;;;;;;;;;;4915856;28;20035;-67
2023/04/08 10:57:49;;;;;;;12.25;10.93;;;;;;;;;;4912765;28;20047;-68
2023/04/08 11:00:18;;;;;;;12.73;11.32;;;;;;;;;;4913726;28;20052;-68
2023/04/08 11:02:43;;;;;;;14.90;11.63;;;;;;;;;;4916341;28;20105;-68
2023/04/08 11:05:11;;;;;;;14.07;11.48;;;;;;;;;;4921526;28;20040;-67
2023/04/08 11:07:45;;;;;;;15.68;11.43;;;;;;;;;;4919255;28;20062;-68
2023/04/08 11:10:12;;;;;;;16.95;11.50;;;;;;;;;;4918262;28;20550;-68
2023/04/08 11:12:38;;;;;;;15.48;12.20;;;;;;;;;;4920158;28;20031;-68
2023/04/08 11:15:04;;;;;;;14.38;12.88;;;;;;;;;;4917903;28;20071;-67
2023/04/08 11:17:33;;;;;;;14.32;12.60;;;;;;;;;;4920093;28;20370;-67
2023/04/08 11:20:01;;;;;;;14.90;12.45;;;;;;;;;;4919620;28;20790;-69
2023/04/08 11:22:27;;;;;;;13.95;12.45;;;;;;;;;;4915804;28;20050;-68
2023/04/08 11:24:53;;;;;;;16.45;12.95;;;;;;;;;;4920749;28;20810;-68
2023/04/08 11:27:21;;;;;;;15.52;12.55;;;;;;;;;;4918917;28;20040;-69
2023/04/08 11:29:49;;;;;;;15.32;12.93;;;;;;;;;;4921371;28;20464;-68
2023/04/08 11:32:15;;;;;;;13.32;11.85;;;;;;;;;;4920588;28;20118;-68
2023/04/08 11:34:40;;;;;;;15.55;11.52;;;;;;;;;;4918749;28;20043;-67
2023/04/08 11:37:08;;;;;;;14.30;11.63;;;;;;;;;;4919805;28;20150;-67
2023/04/08 11:39:33;;;;;;;15.15;11.45;;;;;;;;;;4918807;28;20130;-67
2023/04/08 11:41:59;;;;;;;13.68;11.27;;;;;;;;;;4923490;28;20035;-67
2023/04/08 11:44:31;;;;;;;14.23;11.98;;;;;;;;;;4921623;28;20056;-67
2023/04/08 11:47:01;;;;;;;13.55;10.70;;;;;;;;;;4883445;28;20247;-66
2023/04/08 11:49:28;;;;;;;13.15;10.48;;;;;;;;;;4917204;28;20036;-67
2023/04/08 11:52:01;;;;;;;15.25;10.90;;;;;;;;;;4918137;28;20063;-68
2023/04/08 11:54:27;;;;;;;15.63;10.52;;;;;;;;;;4917378;28;20039;-69
2023/04/08 11:56:52;;;;;;;13.10;10.82;;;;;;;;;;4917704;28;20043;-68
2023/04/08 11:59:17;;;;;;;13.65;10.85;;;;;;;;;;4915144;28;20387;-68
2023/04/08 12:01:43;;;;;;;13.77;11.10;;;;;;;;;;4917592;28;20563;-69
2023/04/08 12:04:09;;;;;;;14.32;10.88;;;;;;;;;;4915445;28;20042;-68
2023/04/08 12:06:35;;;;;;;13.18;11.18;;;;;;;;;;4912224;28;20126;-70
2023/04/08 12:09:02;;;;;;;14.82;10.82;;;;;;;;;;4914056;28;20039;-68
2023/04/08 12:11:27;;;;;;;15.07;11.52;;;;;;;;;;4915641;28;20035;-68
2023/04/08 12:13:53;;;;;;;17.15;11.13;;;;;;;;;;4926642;28;20438;-68
2023/04/08 12:16:18;;;;;;;14.35;10.73;;;;;;;;;;4915299;28;20542;-70
2023/04/08 12:18:46;;;;;;;15.43;10.82;;;;;;;;;;4913685;28;20078;-69
2023/04/08 12:21:11;;;;;;;13.23;11.10;;;;;;;;;;4920635;28;20039;-70
2023/04/08 12:23:37;;;;;;;16.48;11.90;;;;;;;;;;4917560;28;20038;-69
2023/04/08 12:26:03;;;;;;;12.93;10.40;;;;;;;;;;4917771;28;20031;-69
2023/04/08 12:28:28;;;;;;;11.50;9.88;;;;;;;;;;4917246;28;20480;-69
2023/04/08 12:30:53;;;;;;;13.80;10.05;;;;;;;;;;4914867;28;20300;-69
2023/04/08 12:33:19;;;;;;;12.35;10.20;;;;;;;;;;4918480;28;20475;-69
2023/04/08 12:35:44;;;;;;;13.60;9.52;;;;;;;;;;4911516;28;20231;-68
2023/04/08 12:38:09;;;;;;;12.30;9.68;;;;;;;;;;4913846;28;20043;-68
2023/04/08 12:40:35;;;;;;;12.45;9.10;;;;;;;;;;4919594;28;20137;-68
2023/04/08 12:43:00;;;;;;;11.10;9.20;;;;;;;;;;4915106;28;20593;-68
2023/04/08 12:45:25;;;;;;;14.18;9.50;;;;;;;;;;4913529;28;20118;-70
2023/04/08 12:47:53;;;;;;;10.63;9.30;;;;;;;;;;4913373;28;20039;-69
2023/04/08 12:50:18;;;;;;;12.13;9.75;;;;;;;;;;4898068;28;20588;-68
2023/04/08 12:52:43;;;;;;;13.15;10.57;;;;;;;;;;4916378;28;20046;-69
2023/04/08 12:55:09;;;;;;;14.70;11.73;;;;;;;;;;4913003;28;20364;-69
2023/04/08 12:57:37;;;;;;;14.27;11.27;;;;;;;;;;4915537;28;20122;-68
2023/04/08 13:00:04;;;;;;;13.60;11.07;;;;;;;;;;4910075;28;20051;-68
2023/04/08 13:02:30;;;;;;;15.65;12.15;;;;;;;;;;4931176;28;20463;-68
2023/04/08 13:04:55;;;;;;;12.80;11.50;;;;;;;;;;4912443;28;20047;-68
2023/04/08 13:07:20;;;;;;;14.63;11.55;;;;;;;;;;4920080;28;20063;-67
2023/04/08 13:09:45;;;;;;;16.80;13.88;;;;;;;;;;4914353;28;20035;-67
2023/04/08 13:12:15;;;;;;;17.60;14.32;;;;;;;;;;4916204;28;20530;-68
2023/04/08 13:14:40;;;;;;;19.75;15.48;;;;;;;;;;4916359;28;20044;-67
2023/04/08 13:17:10;;;;;;;19.55;16.40;;;;;;;;;;4916413;28;20381;-68
2023/04/08 13:19:37;;;;;;;20.65;16.73;;;;;;;;;;4896864;28;20057;-68
2023/04/08 13:22:03;;;;;;;20.10;17.30;;;;;;;;;;4917037;28;20043;-67
2023/04/08 13:24:28;;;;;;;18.70;16.48;;;;;;;;;;4912519;28;20678;-68
2023/04/08 13:26:53;;;;;;;19.52;16.30;;;;;;;;;;4915557;28;20495;-67
2023/04/08 13:29:19;;;;;;;20.83;16.52;;;;;;;;;;4910377;28;22573;-67
2023/04/08 13:31:46;;;;;;;21.25;16.30;;;;;;;;;;4922505;28;22439;-68
2023/04/08 13:34:11;;;;;;;19.25;15.57;;;;;;;;;;4916738;28;20035;-68
2023/04/08 13:36:37;;;;;;;19.25;16.05;;;;;;;;;;4901123;28;20062;-68
2023/04/08 13:39:02;;;;;;;18.17;14.35;;;;;;;;;;4913685;28;20069;-67
2023/04/08 13:41:30;;;;;;;17.85;14.30;;;;;;;;;;4915349;28;20084;-67
2023/04/08 13:43:55;;;;;;;17.90;14.98;;;;;;;;;;4914049;28;20089;-68
2023/04/08 13:46:20;;;;;;;17.50;14.43;;;;;;;;;;4944230;28;20031;-67
2023/04/08 13:48:46;;;;;;;18.00;14.25;;;;;;;;;;4915785;28;20583;-68
2023/04/08 13:51:13;;;;;;;14.98;13.20;;;;;;;;;;4915201;28;20065;-68
2023/04/08 13:53:39;;;;;;;16.95;14.15;;;;;;;;;;4914853;28;20031;-66
2023/04/08 13:56:04;;;;;;;17.50;14.68;;;;;;;;;;4910889;28;20032;-67
2023/04/08 13:58:30;;;;;;;18.08;14.60;;;;;;;;;;4912719;28;20066;-66
2023/04/08 14:00:55;;;;;;;17.85;13.98;;;;;;;;;;4916413;28;20594;-66
2023/04/08 14:03:21;;;;;;;17.73;14.82;;;;;;;;;;4910697;28;20284;-65
2023/04/08 14:05:46;;;;;;;15.82;13.50;;;;;;;;;;4912189;28;20709;-68
2023/04/08 14:08:12;;;;;;;16.10;13.02;;;;;;;;;;4911830;28;20035;-66
2023/04/08 14:10:37;;;;;;;14.23;12.15;;;;;;;;;;4916097;28;20069;-67
2023/04/08 14:13:03;;;;;;;14.85;11.30;;;;;;;;;;4915664;28;20392;-66
2023/04/08 14:15:30;;;;;;;14.65;10.60;;;;;;;;;;4913576;28;20093;-66